Time;durP1;ratioP1;P1;durP2;ratioP2;P2;SDS_P1;SDS_P2;PMS_P1;PMS_P2;Temp;Humidity;BMP_temperature;BMP_pressure;BME280_temperature;BME280_humidity;BME280_pressure;Samples;Min_cycle;Max_cycle;Signal;HPM_P1;HPM_P2
2021/03/29 04:16:36;;;;;;;13.73;3.97;;;8.30;99.90;;;;;;6216276;23;20188;-81
2021/03/29 04:19:02;;;;;;;10.80;3.30;;;8.20;99.90;;;;;;6215879;23;20129;-81
2021/03/29 04:21:29;;;;;;;13.30;3.80;;;8.30;99.90;;;;;;6215705;23;20196;-81
2021/03/29 04:23:55;;;;;;;13.20;3.83;;;8.30;99.90;;;;;;6214525;23;20140;-83
2021/03/29 04:26:21;;;;;;;19.63;4.67;;;8.30;99.90;;;;;;6213750;23;20147;-82
2021/03/29 05:20:26;;;;;;;17.17;4.63;;;8.40;99.90;;;;;;6155622;23;20200;-83
2021/03/29 05:22:52;;;;;;;18.27;5.90;;;8.40;99.90;;;;;;6131782;23;20153;-83
2021/03/29 05:25:18;;;;;;;19.97;4.00;;;8.40;99.90;;;;;;6132253;23;20153;-83
2021/03/29 05:27:43;;;;;;;17.67;4.43;;;8.40;99.90;;;;;;6131438;23;20200;-83
2021/03/29 05:30:10;;;;;;;16.33;4.30;;;8.40;99.90;;;;;;6130247;23;20157;-83
2021/03/29 05:40:18;;;;;;;20.07;4.67;;;8.50;99.90;;;;;;6214766;23;20234;-84
2021/03/29 05:42:44;;;;;;;21.23;4.70;;;8.50;99.90;;;;;;6188285;23;20547;-84
2021/03/29 05:45:10;;;;;;;17.97;4.67;;;8.50;99.90;;;;;;6187509;23;20167;-84
2021/03/29 05:47:37;;;;;;;20.90;4.90;;;8.40;99.90;;;;;;6185050;23;20581;-83
2021/03/29 05:50:06;;;;;;;15.67;4.43;;;8.40;99.90;;;;;;6212549;23;20490;-85
2021/03/29 05:52:31;;;;;;;20.70;4.00;;;8.40;99.90;;;;;;6213859;23;20402;-84
2021/03/29 05:54:57;;;;;;;15.87;4.17;;;8.40;99.90;;;;;;6188269;23;20159;-85
2021/03/29 05:57:24;;;;;;;19.50;4.50;;;8.50;99.90;;;;;;6187725;23;20195;-84
2021/03/29 05:59:50;;;;;;;19.70;4.70;;;8.50;99.90;;;;;;6208023;23;20618;-84
2021/03/29 06:02:26;;;;;;;17.20;4.33;;;8.50;99.90;;;;;;6186111;23;20152;-84
2021/03/29 06:04:52;;;;;;;18.07;4.50;;;8.50;99.90;;;;;;6214339;23;20602;-85
2021/03/29 06:07:28;;;;;;;18.77;4.67;;;8.50;99.90;;;;;;6215951;23;20171;-85
2021/03/29 06:09:55;;;;;;;20.87;6.80;;;8.50;99.90;;;;;;6212908;23;20155;-85
2021/03/29 06:12:23;;;;;;;17.07;6.27;;;8.50;99.90;;;;;;6214628;23;20160;-85
2021/03/29 06:14:59;;;;;;;21.37;6.40;;;8.50;99.90;;;;;;6218477;23;20337;-85
2021/03/29 06:17:25;;;;;;;18.90;4.77;;;8.50;99.90;;;;;;6214671;23;20709;-85
2021/03/29 06:19:53;;;;;;;30.73;11.87;;;8.50;99.90;;;;;;6190198;23;20152;-85
2021/03/29 06:22:23;;;;;;;44.87;17.00;;;8.50;99.90;;;;;;6189249;23;20152;-85
2021/03/29 06:24:55;;;;;;;22.97;9.60;;;8.50;99.90;;;;;;6213649;23;20155;-84
2021/03/29 06:27:23;;;;;;;18.70;4.93;;;8.50;99.90;;;;;;6213360;23;20179;-85
2021/03/29 06:29:49;;;;;;;16.00;5.53;;;8.40;99.90;;;;;;6214568;23;20140;-84
2021/03/29 06:32:19;;;;;;;19.90;5.37;;;8.50;99.90;;;;;;6188543;23;20290;-85
2021/03/29 06:34:48;;;;;;;17.13;6.03;;;8.50;99.90;;;;;;6216758;23;20225;-85
2021/03/29 06:37:18;;;;;;;18.80;6.57;;;8.40;99.90;;;;;;6187374;23;20202;-85
2021/03/29 06:39:43;;;;;;;22.60;5.90;;;8.40;99.90;;;;;;6212360;23;20163;-85
2021/03/29 06:42:09;;;;;;;20.07;5.87;;;8.50;99.90;;;;;;6216724;23;20230;-85
2021/03/29 06:44:37;;;;;;;15.50;5.00;;;8.50;99.90;;;;;;6215924;23;20224;-85
2021/03/29 06:47:07;;;;;;;16.20;4.90;;;8.50;99.90;;;;;;6188947;23;20623;-84
2021/03/29 06:49:45;;;;;;;20.07;5.73;;;8.50;99.90;;;;;;6187433;23;20194;-84
2021/03/29 06:52:30;;;;;;;16.87;4.50;;;8.50;99.90;;;;;;6213960;23;20657;-85
2021/03/29 06:55:29;;;;;;;16.83;4.27;;;8.50;99.90;;;;;;6215815;23;20178;-84
2021/03/29 06:58:02;;;;;;;17.50;4.53;;;8.50;99.90;;;;;;6211913;23;20183;-84
2021/03/29 07:00:33;;;;;;;16.23;4.67;;;8.50;99.90;;;;;;6212507;23;20152;-84
2021/03/29 07:03:05;;;;;;;15.33;4.67;;;8.50;99.90;;;;;;6211752;23;20592;-85
2021/03/29 07:05:31;;;;;;;13.63;4.53;;;8.50;99.90;;;;;;6213435;23;20144;-84
2021/03/29 07:08:00;;;;;;;13.57;4.90;;;8.50;99.90;;;;;;6213808;23;20190;-84
2021/03/29 07:10:25;;;;;;;13.13;4.23;;;8.60;99.90;;;;;;6212692;23;20151;-84
2021/03/29 07:12:53;;;;;;;11.03;3.80;;;8.60;99.90;;;;;;6214516;23;20194;-83
2021/03/29 07:15:19;;;;;;;11.73;3.37;;;8.60;99.90;;;;;;6190669;23;20160;-83
2021/03/29 07:17:45;;;;;;;16.30;3.70;;;8.60;99.90;;;;;;6216152;23;20224;-85
2021/03/29 07:20:22;;;;;;;13.10;4.20;;;8.60;99.90;;;;;;6188503;23;20182;-84
2021/03/29 07:22:50;;;;;;;16.47;4.57;;;8.50;99.90;;;;;;6214826;23;20175;-84
2021/03/29 07:25:17;;;;;;;15.30;4.87;;;8.60;99.90;;;;;;6212912;23;20151;-84
2021/03/29 07:27:46;;;;;;;24.30;5.70;;;8.60;99.90;;;;;;6216024;23;20171;-84
2021/03/29 07:30:15;;;;;;;21.10;6.23;;;8.60;99.90;;;;;;6216428;23;20602;-83
2021/03/29 07:32:41;;;;;;;14.87;5.57;;;8.60;99.90;;;;;;6214273;23;20181;-83
2021/03/29 07:35:07;;;;;;;24.70;6.10;;;8.60;99.90;;;;;;6215780;23;20242;-83
2021/03/29 07:37:43;;;;;;;21.63;8.27;;;8.60;99.90;;;;;;6215434;23;20605;-83
2021/03/29 07:40:18;;;;;;;23.33;9.23;;;8.60;99.90;;;;;;6189089;23;20615;-84
2021/03/29 07:42:46;;;;;;;19.17;5.60;;;8.60;99.90;;;;;;6217725;23;20197;-84
2021/03/29 07:45:18;;;;;;;23.67;6.27;;;8.70;99.90;;;;;;6215087;23;20202;-84
2021/03/29 07:47:53;;;;;;;24.53;6.17;;;8.70;99.90;;;;;;6214534;23;20516;-84
2021/03/29 07:50:38;;;;;;;25.90;8.17;;;8.80;99.90;;;;;;6214823;23;20159;-84
2021/03/29 07:53:16;;;;;;;21.47;6.10;;;8.80;99.90;;;;;;6216897;23;20158;-83
2021/03/29 07:55:50;;;;;;;23.13;6.40;;;8.80;99.90;;;;;;6215047;23;20247;-84
2021/03/29 07:58:21;;;;;;;23.33;8.07;;;8.80;99.90;;;;;;6215580;23;20171;-85
2021/03/29 08:00:56;;;;;;;24.63;7.87;;;8.80;99.90;;;;;;6218011;23;20131;-84
2021/03/29 08:03:22;;;;;;;20.60;6.47;;;8.90;99.90;;;;;;6190562;23;20136;-83
2021/03/29 08:05:49;;;;;;;21.27;6.83;;;8.90;99.90;;;;;;6190623;23;20592;-84
2021/03/29 08:08:24;;;;;;;22.77;6.80;;;9.00;99.90;;;;;;6215882;23;20210;-85
2021/03/29 08:10:58;;;;;;;19.47;5.93;;;8.90;99.90;;;;;;6189009;23;20159;-84
2021/03/29 08:13:50;;;;;;;24.37;7.17;;;8.90;99.90;;;;;;6190564;23;20492;-83
2021/03/29 08:16:21;;;;;;;27.83;6.63;;;8.90;99.90;;;;;;6215276;23;20164;-84
2021/03/29 08:19:06;;;;;;;25.67;6.93;;;8.90;99.90;;;;;;6215005;23;20151;-84
2021/03/29 08:21:58;;;;;;;20.60;6.67;;;8.90;99.90;;;;;;6215318;23;20150;-83
2021/03/29 08:24:32;;;;;;;23.13;7.20;;;9.00;99.90;;;;;;6216706;23;20619;-83
2021/03/29 08:27:27;;;;;;;24.33;6.40;;;9.00;99.90;;;;;;6213972;23;20269;-83
2021/03/29 08:29:54;;;;;;;23.33;5.13;;;9.10;99.90;;;;;;6215322;23;20140;-84
2021/03/29 08:32:31;;;;;;;25.53;5.73;;;9.10;99.90;;;;;;6188735;23;20503;-82
2021/03/29 08:35:13;;;;;;;27.90;7.07;;;9.10;99.90;;;;;;6215119;23;20135;-83
2021/03/29 08:37:46;;;;;;;22.07;6.33;;;9.20;99.90;;;;;;6213382;23;20187;-83
2021/03/29 08:40:16;;;;;;;18.50;6.43;;;9.30;99.90;;;;;;6214433;23;20252;-82
2021/03/29 08:42:44;;;;;;;27.03;7.57;;;9.30;99.90;;;;;;6215074;23;20137;-85
2021/03/29 08:45:13;;;;;;;24.33;7.03;;;9.30;99.90;;;;;;6214368;23;20159;-84
2021/03/29 08:47:41;;;;;;;19.73;5.90;;;9.30;99.90;;;;;;6212778;23;20187;-82
2021/03/29 08:50:13;;;;;;;22.03;6.77;;;9.30;99.90;;;;;;6188745;23;20155;-82
2021/03/29 08:52:44;;;;;;;26.33;6.33;;;9.40;99.90;;;;;;6215948;23;20230;-83
2021/03/29 08:55:14;;;;;;;25.40;5.90;;;9.40;99.90;;;;;;6213965;23;20598;-82
2021/03/29 08:57:40;;;;;;;20.40;6.30;;;9.50;99.90;;;;;;6215498;23;20183;-84
2021/03/29 09:00:18;;;;;;;25.73;7.00;;;9.50;99.90;;;;;;6215692;23;20503;-84
2021/03/29 09:02:43;;;;;;;19.07;5.27;;;9.60;99.90;;;;;;6213856;23;20159;-83
2021/03/29 09:05:11;;;;;;;23.43;6.13;;;9.50;99.90;;;;;;6189030;23;20156;-84
2021/03/29 09:07:44;;;;;;;26.50;6.27;;;9.50;99.90;;;;;;6213896;23;20261;-82
2021/03/29 09:10:31;;;;;;;22.70;6.20;;;9.50;99.90;;;;;;6214761;23;20132;-84
2021/03/29 09:13:06;;;;;;;26.23;6.53;;;9.50;99.90;;;;;;6215830;23;20147;-83
2021/03/29 09:15:36;;;;;;;25.53;6.30;;;9.50;99.90;;;;;;6214316;23;20139;-84
2021/03/29 09:18:09;;;;;;;22.77;7.30;;;9.40;99.90;;;;;;6214271;23;20178;-83
2021/03/29 09:20:44;;;;;;;24.17;5.60;;;9.50;99.90;;;;;;6188462;23;20576;-84
2021/03/29 09:23:13;;;;;;;18.77;6.30;;;9.50;99.90;;;;;;6214174;23;20131;-84
2021/03/29 09:25:42;;;;;;;31.07;6.43;;;9.50;99.90;;;;;;6213775;23;20348;-83
2021/03/29 09:28:36;;;;;;;25.53;6.60;;;9.50;99.90;;;;;;6213498;23;20430;-83
2021/03/29 09:31:05;;;;;;;21.80;5.87;;;9.50;99.90;;;;;;6212107;23;20139;-83
2021/03/29 09:33:31;;;;;;;24.20;6.23;;;9.50;99.90;;;;;;6210610;23;20195;-83
2021/03/29 09:36:07;;;;;;;24.70;6.03;;;9.60;99.90;;;;;;6212576;23;20182;-82
2021/03/29 09:38:35;;;;;;;22.80;5.67;;;9.60;99.90;;;;;;6212117;23;20194;-82
2021/03/29 09:41:18;;;;;;;30.73;6.70;;;9.60;99.90;;;;;;6214624;23;20128;-82
2021/03/29 09:43:45;;;;;;;25.17;6.60;;;9.70;99.90;;;;;;6213040;23;20136;-83
2021/03/29 09:46:11;;;;;;;22.90;6.40;;;9.70;99.90;;;;;;6212041;23;20159;-82
2021/03/29 09:48:37;;;;;;;23.83;5.87;;;9.80;99.90;;;;;;6186927;23;20488;-82
2021/03/29 09:51:16;;;;;;;27.93;6.97;;;9.80;99.90;;;;;;6214251;23;20147;-83
2021/03/29 09:53:42;;;;;;;16.77;5.20;;;9.70;99.90;;;;;;6213512;23;20171;-83
2021/03/29 09:56:07;;;;;;;28.27;6.53;;;9.90;99.90;;;;;;6186816;23;20182;-83
2021/03/29 09:58:37;;;;;;;21.53;5.90;;;9.80;99.90;;;;;;6215050;23;20151;-83
2021/03/29 10:01:16;;;;;;;18.60;6.00;;;9.90;99.90;;;;;;6212679;23;20151;-81
2021/03/29 10:03:51;;;;;;;27.70;7.13;;;9.90;99.90;;;;;;6187195;23;20167;-83
2021/03/29 10:06:17;;;;;;;26.87;7.37;;;9.90;99.90;;;;;;6211442;23;20145;-83
2021/03/29 10:09:00;;;;;;;28.33;5.90;;;10.00;99.90;;;;;;5105816;27;670074;-83
2021/03/29 10:11:48;;;;;;;24.20;6.87;;;10.00;99.90;;;;;;5134372;27;20185;-83
2021/03/29 10:14:17;;;;;;;23.00;6.10;;;10.00;99.90;;;;;;5125160;27;20196;-82
2021/03/29 10:16:51;;;;;;;21.17;6.03;;;10.00;99.90;;;;;;5119795;27;20205;-84
2021/03/29 10:19:19;;;;;;;27.80;5.93;;;10.00;99.90;;;;;;5120449;28;20173;-84
2021/03/29 10:22:15;;;;;;;25.00;6.87;;;9.90;99.90;;;;;;5120450;28;20178;-84
2021/03/29 10:25:05;;;;;;;27.40;7.27;;;10.00;99.90;;;;;;5123102;28;20203;-84
2021/03/29 10:27:47;;;;;;;24.97;6.53;;;10.00;99.90;;;;;;5123744;27;20225;-83
2021/03/29 10:30:19;;;;;;;27.20;6.77;;;10.00;99.90;;;;;;5112523;28;20185;-83
2021/03/29 10:32:56;;;;;;;25.23;6.63;;;10.10;99.90;;;;;;5120382;28;20181;-84
2021/03/29 10:35:23;;;;;;;27.00;8.23;;;10.10;99.90;;;;;;5128564;28;20185;-85
2021/03/29 10:37:50;;;;;;;23.60;6.40;;;10.00;99.90;;;;;;5121739;27;20206;-83
2021/03/29 10:40:16;;;;;;;26.03;6.90;;;10.00;99.90;;;;;;5123346;28;20181;-85
2021/03/29 10:42:42;;;;;;;22.43;6.10;;;10.10;99.90;;;;;;5124674;28;20215;-84
2021/03/29 10:45:14;;;;;;;22.23;6.53;;;10.10;99.90;;;;;;5126581;28;20181;-84
2021/03/29 10:47:41;;;;;;;24.40;7.30;;;10.10;99.90;;;;;;5115346;28;20662;-84
2021/03/29 10:50:09;;;;;;;22.93;6.03;;;10.10;99.90;;;;;;5118534;27;20174;-84
2021/03/29 10:52:35;;;;;;;25.90;6.47;;;10.20;99.90;;;;;;5125060;28;20209;-83
2021/03/29 10:55:01;;;;;;;25.80;7.03;;;10.20;99.90;;;;;;5117975;28;20244;-83
2021/03/29 10:57:26;;;;;;;22.97;6.60;;;10.20;99.90;;;;;;5113558;28;20205;-83
2021/03/29 10:59:52;;;;;;;26.67;7.23;;;10.20;99.90;;;;;;5119341;28;20269;-83
2021/03/29 11:02:17;;;;;;;22.83;7.63;;;10.10;99.90;;;;;;5120444;28;20702;-84
2021/03/29 11:04:44;;;;;;;27.47;8.03;;;10.20;99.90;;;;;;5118780;28;20242;-83
2021/03/29 11:07:10;;;;;;;20.43;6.40;;;10.20;99.90;;;;;;5118291;28;20201;-83
2021/03/29 11:09:36;;;;;;;23.80;6.03;;;10.20;99.90;;;;;;5120892;28;20208;-83
2021/03/29 11:12:02;;;;;;;26.43;7.50;;;10.20;99.90;;;;;;5120375;27;20185;-82
2021/03/29 11:14:27;;;;;;;19.60;5.83;;;10.20;99.90;;;;;;5126841;28;20185;-83
2021/03/29 11:16:54;;;;;;;22.43;6.50;;;10.30;99.90;;;;;;5114242;27;20203;-84
2021/03/29 11:19:20;;;;;;;22.40;5.47;;;10.40;99.90;;;;;;5113823;28;20654;-84
2021/03/29 11:21:47;;;;;;;26.63;7.83;;;10.40;99.90;;;;;;5112369;28;20178;-83
2021/03/29 11:24:13;;;;;;;22.20;6.57;;;10.40;99.90;;;;;;5110552;28;20178;-83
2021/03/29 11:26:39;;;;;;;24.63;6.23;;;10.30;99.90;;;;;;5105724;28;20586;-83
2021/03/29 11:29:05;;;;;;;59.70;26.60;;;10.40;99.90;;;;;;5105000;28;20186;-82
2021/03/29 11:31:31;;;;;;;18.60;6.50;;;10.40;99.90;;;;;;5109486;28;20181;-83
2021/03/29 11:33:56;;;;;;;15.47;5.80;;;10.40;99.90;;;;;;5105002;28;20879;-83
2021/03/29 11:36:22;;;;;;;25.03;6.67;;;10.40;99.90;;;;;;5106024;28;20193;-83
2021/03/29 15:35:49;;;;;;;23.40;8.13;;;10.70;99.90;;;;;;4972830;28;20688;-86
2021/03/29 15:38:14;;;;;;;19.73;7.20;;;10.60;99.90;;;;;;4950852;28;20187;-87
2021/03/29 15:40:40;;;;;;;18.43;6.83;;;10.50;99.90;;;;;;4957588;28;20185;-87
2021/03/29 15:43:05;;;;;;;17.90;7.27;;;10.40;99.90;;;;;;4954371;28;20218;-86
2021/03/29 15:45:31;;;;;;;17.77;7.47;;;10.50;99.90;;;;;;4953917;28;20225;-88
2021/03/29 15:47:58;;;;;;;22.83;7.53;;;10.50;99.90;;;;;;4954162;28;20217;-86
2021/03/29 15:50:25;;;;;;;24.70;7.33;;;10.50;99.90;;;;;;4955811;28;20291;-86
2021/03/29 15:52:50;;;;;;;21.60;6.93;;;10.40;99.90;;;;;;4956488;28;20268;-86
2021/03/29 15:55:16;;;;;;;21.90;7.13;;;10.40;99.90;;;;;;4953258;28;20274;-86
2021/03/29 15:57:43;;;;;;;25.27;7.60;;;10.30;99.90;;;;;;4955050;28;20206;-87
2021/03/29 16:00:15;;;;;;;24.33;7.57;;;10.40;99.90;;;;;;4955304;28;20217;-86
2021/03/29 16:02:44;;;;;;;22.80;7.13;;;10.40;99.90;;;;;;4957340;28;20190;-86
2021/03/29 16:05:12;;;;;;;20.73;7.73;;;10.40;99.90;;;;;;4954153;28;20286;-86
2021/03/29 16:07:37;;;;;;;18.27;7.13;;;10.30;99.90;;;;;;4956858;28;20213;-89
2021/03/29 16:10:08;;;;;;;21.50;7.80;;;10.40;99.90;;;;;;4975219;28;20224;-85
2021/03/29 16:12:35;;;;;;;20.00;7.23;;;10.30;99.90;;;;;;4954046;28;20182;-86
2021/03/29 16:15:04;;;;;;;20.47;7.43;;;10.30;99.90;;;;;;4946278;28;20275;-87
2021/03/29 16:17:29;;;;;;;24.00;7.50;;;10.40;99.90;;;;;;4951879;28;20183;-85
2021/03/29 16:19:55;;;;;;;26.10;8.17;;;10.40;99.90;;;;;;4950605;28;20583;-86
2021/03/29 16:22:21;;;;;;;25.43;7.93;;;10.40;99.90;;;;;;4953069;28;20569;-86
2021/03/29 16:24:47;;;;;;;20.80;8.13;;;10.30;99.90;;;;;;4956129;28;20747;-86
2021/03/29 16:27:16;;;;;;;26.33;8.07;;;10.30;99.90;;;;;;4951060;28;20206;-87
2021/03/29 16:29:44;;;;;;;21.80;6.93;;;10.30;99.90;;;;;;4958740;28;20576;-90
2021/03/29 16:32:19;;;;;;;25.50;7.40;;;10.20;99.90;;;;;;4956081;28;20224;-86
2021/03/29 16:34:45;;;;;;;20.60;6.97;;;10.30;99.90;;;;;;4953442;28;20210;-85
2021/03/29 16:37:11;;;;;;;20.50;7.40;;;10.30;99.90;;;;;;4954429;28;20270;-86
2021/03/29 16:39:37;;;;;;;27.90;6.97;;;10.30;99.90;;;;;;4952560;28;20261;-86
2021/03/29 16:42:03;;;;;;;24.80;8.50;;;10.30;99.90;;;;;;4954588;28;20179;-86
2021/03/29 16:44:29;;;;;;;29.30;8.07;;;10.20;99.90;;;;;;4950986;28;20183;-86
2021/03/29 16:46:55;;;;;;;18.20;7.40;;;10.20;99.90;;;;;;4954859;28;20672;-86
2021/03/29 16:49:22;;;;;;;24.37;7.73;;;10.20;99.90;;;;;;4954961;28;20230;-89
2021/03/29 16:51:48;;;;;;;23.57;8.30;;;10.10;99.90;;;;;;4953739;28;20194;-86
2021/03/29 16:54:14;;;;;;;19.77;7.93;;;10.10;99.90;;;;;;4952651;28;20578;-86
2021/03/29 16:56:42;;;;;;;24.13;7.10;;;10.10;99.90;;;;;;4953049;28;20186;-86
2021/03/29 16:59:11;;;;;;;26.07;7.90;;;10.10;99.90;;;;;;4956364;28;20206;-89
2021/03/29 17:01:38;;;;;;;23.17;8.07;;;10.00;99.90;;;;;;4953015;28;20183;-86
2021/03/29 17:04:04;;;;;;;18.67;7.90;;;10.00;99.90;;;;;;4950381;28;20218;-88
2021/03/29 17:06:30;;;;;;;24.83;8.63;;;10.10;99.90;;;;;;4955818;28;20187;-86
2021/03/29 17:08:55;;;;;;;22.30;8.37;;;10.00;99.90;;;;;;4950526;28;20221;-88
2021/03/29 17:11:21;;;;;;;25.10;7.93;;;10.00;99.90;;;;;;4956407;28;20539;-86
2021/03/29 17:13:47;;;;;;;26.33;9.43;;;10.00;99.90;;;;;;4956215;28;20183;-87
2021/03/29 17:16:13;;;;;;;30.53;8.73;;;10.00;99.90;;;;;;4953630;28;20197;-87
2021/03/29 17:18:41;;;;;;;22.50;8.00;;;9.90;99.90;;;;;;4954148;28;20225;-87
2021/03/29 17:21:07;;;;;;;23.73;7.60;;;9.90;99.90;;;;;;4957729;28;20679;-88
2021/03/29 17:23:37;;;;;;;30.63;9.70;;;9.90;99.90;;;;;;4950784;28;20190;-87
2021/03/29 17:26:03;;;;;;;23.83;7.40;;;9.90;99.90;;;;;;4957611;28;20194;-88
2021/03/29 17:28:35;;;;;;;22.30;7.47;;;9.90;99.90;;;;;;4949160;28;20226;-88
2021/03/29 17:31:02;;;;;;;25.17;8.00;;;9.90;99.90;;;;;;4947701;28;20238;-88
2021/03/29 17:33:27;;;;;;;23.13;8.73;;;9.80;99.90;;;;;;4956640;28;20930;-89
2021/03/29 17:35:53;;;;;;;22.23;7.87;;;9.80;99.90;;;;;;4951210;28;20225;-85
2021/03/29 17:38:21;;;;;;;22.20;8.67;;;9.80;99.90;;;;;;4956606;28;20272;-87
2021/03/29 17:40:47;;;;;;;26.77;8.57;;;9.80;99.90;;;;;;4955727;28;20200;-87
2021/03/29 17:43:13;;;;;;;30.07;9.33;;;9.80;99.90;;;;;;4952526;28;20278;-87
2021/03/29 17:45:38;;;;;;;23.73;8.10;;;9.80;99.90;;;;;;4956205;28;20272;-88
2021/03/29 17:48:18;;;;;;;23.27;8.37;;;9.70;99.90;;;;;;4968232;28;20207;-87
2021/03/29 17:50:44;;;;;;;23.90;8.03;;;9.70;99.90;;;;;;4951557;28;20186;-87
2021/03/29 17:53:11;;;;;;;31.17;9.20;;;9.70;99.90;;;;;;4956097;28;20189;-89
2021/03/29 17:55:39;;;;;;;25.47;7.83;;;9.60;99.90;;;;;;4959613;28;20262;-86
2021/03/29 17:58:05;;;;;;;24.63;8.17;;;9.70;99.90;;;;;;4955290;28;20570;-86
2021/03/29 18:00:31;;;;;;;22.17;7.63;;;9.70;99.90;;;;;;4946303;28;20194;-86
2021/03/29 18:02:56;;;;;;;25.53;9.00;;;9.70;99.90;;;;;;4955944;28;20198;-86
2021/03/29 18:05:22;;;;;;;25.77;9.50;;;9.70;99.90;;;;;;4954026;28;20197;-88
2021/03/29 18:07:48;;;;;;;23.80;9.10;;;9.70;99.90;;;;;;4955145;28;20209;-86
2021/03/29 18:10:26;;;;;;;21.90;7.67;;;9.70;99.90;;;;;;4953740;28;20202;-87
2021/03/29 18:12:51;;;;;;;24.20;8.63;;;9.70;99.90;;;;;;4950700;28;20186;-88
2021/03/29 18:15:17;;;;;;;23.70;8.23;;;9.70;99.90;;;;;;4953691;28;20707;-87
2021/03/29 18:17:50;;;;;;;20.37;7.73;;;9.70;99.90;;;;;;4954958;28;20676;-87
2021/03/29 18:20:25;;;;;;;25.50;8.07;;;9.60;99.90;;;;;;4954933;28;20621;-88
2021/03/29 18:22:51;;;;;;;32.80;9.97;;;9.60;99.90;;;;;;4953226;29;20194;-87
2021/03/29 18:25:17;;;;;;;25.30;8.63;;;9.60;99.90;;;;;;4955028;28;20219;-86
2021/03/29 18:27:43;;;;;;;23.97;8.43;;;9.60;99.90;;;;;;4956765;28;20218;-88
2021/03/29 18:30:12;;;;;;;26.27;7.87;;;9.60;99.90;;;;;;4958993;28;20740;-88
2021/03/29 18:32:37;;;;;;;27.97;8.90;;;9.60;99.90;;;;;;4955463;28;20183;-89
2021/03/29 18:35:04;;;;;;;26.60;9.03;;;9.70;99.90;;;;;;4961854;28;20197;-89
2021/03/29 18:37:29;;;;;;;25.50;8.10;;;9.60;99.90;;;;;;4952982;28;20246;-87
2021/03/29 18:39:55;;;;;;;24.30;8.27;;;9.70;99.90;;;;;;4958095;28;20210;-87
2021/03/29 18:42:22;;;;;;;26.03;7.53;;;9.60;99.90;;;;;;4960549;28;20259;-86
2021/03/29 18:44:47;;;;;;;18.50;8.20;;;9.60;99.90;;;;;;4952292;28;20188;-88
2021/03/29 18:47:13;;;;;;;20.70;8.30;;;9.60;99.90;;;;;;4955885;28;20274;-87
2021/03/29 18:49:40;;;;;;;21.43;8.60;;;9.60;99.90;;;;;;4960370;28;20214;-87
2021/03/29 18:52:06;;;;;;;28.60;8.70;;;9.60;99.90;;;;;;4959334;28;20209;-88
2021/03/29 18:54:34;;;;;;;19.60;6.73;;;9.60;99.90;;;;;;4959669;28;20190;-87
2021/03/29 18:57:00;;;;;;;26.67;8.03;;;9.60;99.90;;;;;;4954500;28;20206;-89
2021/03/29 18:59:27;;;;;;;31.10;8.77;;;9.50;99.90;;;;;;4959919;28;20663;-86
2021/03/29 19:01:53;;;;;;;30.00;8.23;;;9.60;99.90;;;;;;4953679;28;20205;-87
2021/03/29 19:04:19;;;;;;;28.30;8.23;;;9.60;99.90;;;;;;4959448;28;20214;-86
2021/03/29 19:06:44;;;;;;;26.27;8.17;;;9.60;99.90;;;;;;4959903;28;20202;-89
2021/03/29 19:09:15;;;;;;;25.20;7.27;;;9.70;99.90;;;;;;4958787;28;20214;-87
2021/03/29 19:11:56;;;;;;;30.03;8.20;;;9.60;99.90;;;;;;4955793;28;20190;-85
2021/03/29 19:14:23;;;;;;;24.17;8.57;;;9.60;99.90;;;;;;4956524;28;20265;-86
2021/03/29 19:16:48;;;;;;;27.03;8.13;;;9.60;99.90;;;;;;4953817;28;20200;-87
2021/03/29 19:19:17;;;;;;;23.77;8.73;;;9.60;99.90;;;;;;4958159;28;20198;-87
2021/03/29 19:21:46;;;;;;;23.50;8.07;;;9.60;99.90;;;;;;4954443;29;20191;-86
2021/03/29 19:24:24;;;;;;;23.37;7.93;;;9.60;99.90;;;;;;4953785;28;20724;-87
2021/03/29 19:26:55;;;;;;;25.07;7.53;;;9.60;99.90;;;;;;4956921;28;20186;-87
2021/03/29 19:29:57;;;;;;;19.93;7.33;;;9.60;99.90;;;;;;4964644;28;20277;-87
2021/03/29 19:32:28;;;;;;;22.60;7.20;;;9.60;99.90;;;;;;4958198;28;20640;-88
2021/03/29 19:35:09;;;;;;;25.00;8.50;;;9.60;99.90;;;;;;4954009;28;20194;-86
2021/03/29 19:38:09;;;;;;;24.77;8.43;;;9.60;99.90;;;;;;4955045;28;20193;-88
2021/03/29 19:40:51;;;;;;;28.20;9.03;;;9.50;99.90;;;;;;4956284;28;20198;-86
2021/03/29 19:43:18;;;;;;;21.53;7.30;;;9.60;99.90;;;;;;4956954;28;20187;-86
2021/03/29 19:45:44;;;;;;;29.13;8.00;;;9.50;99.90;;;;;;4948954;28;20249;-87
2021/03/29 19:48:10;;;;;;;29.30;8.40;;;9.60;99.90;;;;;;4958643;28;20205;-86
2021/03/29 19:50:36;;;;;;;27.70;7.93;;;9.50;99.90;;;;;;4958789;28;20186;-88
2021/03/29 19:53:01;;;;;;;25.07;7.47;;;9.50;99.90;;;;;;4958672;28;20193;-86
2021/03/29 19:55:28;;;;;;;25.43;7.93;;;9.50;99.90;;;;;;4952281;29;20178;-86
2021/03/29 19:57:56;;;;;;;23.20;7.63;;;9.50;99.90;;;;;;4942286;29;20187;-86
2021/03/29 20:00:22;;;;;;;26.97;6.83;;;9.50;99.90;;;;;;4958379;28;20175;-88
2021/03/29 20:02:51;;;;;;;28.13;8.47;;;9.50;99.90;;;;;;4958849;28;20226;-86
2021/03/29 20:05:19;;;;;;;33.63;8.50;;;9.50;99.90;;;;;;4959624;28;20190;-86
2021/03/29 20:08:05;;;;;;;25.77;7.17;;;9.50;99.90;;;;;;4959865;28;20265;-88
2021/03/29 20:10:31;;;;;;;22.43;7.27;;;9.50;99.90;;;;;;4949530;28;20182;-86
2021/03/29 20:13:00;;;;;;;22.67;7.13;;;9.50;99.90;;;;;;4959351;28;20204;-88
2021/03/29 20:15:26;;;;;;;24.33;8.00;;;9.50;99.90;;;;;;4957226;28;20179;-86
2021/03/29 20:17:52;;;;;;;25.53;8.20;;;9.50;99.90;;;;;;4954147;28;20200;-87
2021/03/29 20:20:20;;;;;;;26.60;7.93;;;9.50;99.90;;;;;;4949870;28;20245;-86
2021/03/29 20:22:45;;;;;;;29.10;7.80;;;9.50;99.90;;;;;;4948699;28;20187;-87
2021/03/29 20:25:12;;;;;;;17.23;6.57;;;9.50;99.90;;;;;;4953747;28;20290;-87
2021/03/29 20:27:37;;;;;;;31.13;7.73;;;9.50;99.90;;;;;;4947012;28;20294;-86
2021/03/29 20:30:03;;;;;;;29.90;7.50;;;9.50;99.90;;;;;;4953366;28;20258;-87
2021/03/29 20:32:29;;;;;;;24.13;8.13;;;9.50;99.90;;;;;;4956471;28;20240;-89
2021/03/29 20:34:58;;;;;;;26.80;8.03;;;9.40;99.90;;;;;;4948691;28;20604;-87
2021/03/29 20:37:25;;;;;;;24.50;8.53;;;9.40;99.90;;;;;;4954167;28;20191;-88
2021/03/29 20:39:51;;;;;;;27.93;7.93;;;9.40;99.90;;;;;;4957066;28;20795;-87
2021/03/29 20:42:17;;;;;;;28.97;8.90;;;9.40;99.90;;;;;;4956758;28;20348;-87
2021/03/29 20:44:43;;;;;;;29.20;7.87;;;9.40;99.90;;;;;;4953723;28;20202;-86
2021/03/29 20:47:09;;;;;;;24.27;7.27;;;9.40;99.90;;;;;;4974269;28;20190;-86
2021/03/29 20:49:34;;;;;;;27.00;7.93;;;9.40;99.90;;;;;;4952401;28;20222;-89
2021/03/29 20:52:00;;;;;;;20.40;7.50;;;9.40;99.90;;;;;;4947464;28;20186;-86
2021/03/29 20:54:25;;;;;;;32.07;7.57;;;9.30;99.90;;;;;;4950486;28;20257;-87
2021/03/29 20:56:51;;;;;;;22.20;6.87;;;9.40;99.90;;;;;;4955764;28;20182;-87
2021/03/29 20:59:18;;;;;;;23.90;7.90;;;9.40;99.90;;;;;;4951158;28;20201;-87
2021/03/29 21:01:44;;;;;;;19.33;6.53;;;9.40;99.90;;;;;;4953060;28;20646;-87
2021/03/29 21:04:12;;;;;;;29.47;8.40;;;9.40;99.90;;;;;;4945208;29;20217;-85
2021/03/29 21:06:40;;;;;;;25.47;8.00;;;9.40;99.90;;;;;;4971813;28;20235;-86
2021/03/29 21:09:05;;;;;;;25.20;7.33;;;9.40;99.90;;;;;;4940004;29;20224;-88
2021/03/29 21:11:31;;;;;;;26.77;7.67;;;9.40;99.90;;;;;;4952757;28;20242;-86
2021/03/29 21:13:56;;;;;;;27.23;7.87;;;9.30;99.90;;;;;;4950138;29;20179;-84
2021/03/29 21:16:22;;;;;;;21.87;8.00;;;9.30;99.90;;;;;;4939521;29;20185;-87
2021/03/29 21:18:48;;;;;;;25.30;6.63;;;9.30;99.90;;;;;;4968086;28;20626;-85
2021/03/29 21:21:13;;;;;;;24.30;8.07;;;9.30;99.90;;;;;;4958424;28;20183;-86
2021/03/29 21:23:39;;;;;;;18.67;7.87;;;9.30;99.90;;;;;;4954604;28;20193;-87
2021/03/29 21:26:04;;;;;;;26.27;7.63;;;9.30;99.90;;;;;;4939075;29;20198;-86
2021/03/29 21:28:30;;;;;;;25.70;9.50;;;9.30;99.90;;;;;;4953566;28;20222;-86
2021/03/29 21:30:56;;;;;;;22.27;8.03;;;9.20;99.90;;;;;;4940628;28;20193;-88
2021/03/29 21:33:24;;;;;;;26.17;8.00;;;9.30;99.90;;;;;;4955649;28;20198;-88
2021/03/29 21:35:49;;;;;;;30.00;8.97;;;9.20;99.90;;;;;;4958335;28;20517;-87
2021/03/29 21:38:15;;;;;;;21.60;7.73;;;9.10;99.90;;;;;;4943258;29;20202;-86
2021/03/29 21:40:43;;;;;;;31.63;8.27;;;9.10;99.90;;;;;;4956238;28;20535;-86
2021/03/29 21:43:09;;;;;;;24.70;7.87;;;9.10;99.90;;;;;;4958997;28;20190;-86
2021/03/29 21:45:34;;;;;;;23.57;7.43;;;9.10;99.90;;;;;;4958452;28;20285;-86
2021/03/29 21:48:00;;;;;;;23.67;7.90;;;9.10;99.90;;;;;;4958374;28;20252;-86
2021/03/29 21:50:27;;;;;;;26.57;8.90;;;9.10;99.90;;;;;;4955564;28;20237;-85
2021/03/29 21:52:53;;;;;;;27.73;8.10;;;9.00;99.90;;;;;;4959040;28;20185;-86
2021/03/29 21:55:19;;;;;;;27.80;8.30;;;9.00;99.90;;;;;;4975631;28;20182;-86
2021/03/29 21:57:45;;;;;;;25.93;8.30;;;9.00;99.90;;;;;;4958780;28;20273;-87
2021/03/29 22:00:18;;;;;;;22.77;8.07;;;9.00;99.90;;;;;;4959041;28;20703;-85
2021/03/29 22:02:44;;;;;;;25.30;8.60;;;9.10;99.90;;;;;;4955011;28;20186;-86
2021/03/29 22:05:13;;;;;;;21.43;8.27;;;9.10;99.90;;;;;;4955679;29;20187;-85